Skip to main content

NOAA/GLERL Met Station at Chicago, IL

Previous 5 days (top of hour only)
See also Previous 3 Hours (2 minute increments)
Jump down to Data
Switch to [English][Metric]
Zoom: Click and drag, Pan: shift-click and drag, Unzoom: double-click, Unzoom All




Note: Speed = mean wind during 2-minute period at top of hour,
Gust = max wind during 2-minute period at top of hour,
Peak = max wind during entire hour.
• See also 5-day windrose plot


NOAA/GLERL Met Station at Chicago, IL

Previous 5 days (top of hour only)
See also Previous 3 Hours (2 minute increments)
Jump up to Graphs
Switch to [English][Metric]
                  Wind  Wind  Wind   Air   Dew   Rel
                   Spd   Gst   Dir  Temp    Pt   Hum
YYYY-MM-DD   CST   kts   kts   deg     F     F     %
2017-12-16 18:00   2.1   2.7    63  40.3  37.1  88.2
2017-12-16 17:00   8.0   8.4   100  41.7  33.4  72.1
2017-12-16 16:00   3.3   3.9    70  43.7  28.3  54.3
2017-12-16 15:00   4.5   4.9    70  41.2  33.9  75.1
2017-12-16 14:00   5.2   5.6   190  44.4  26.4  48.9
2017-12-16 13:00   3.7   4.7   222  43.7  26.4  50.1
2017-12-16 12:00   5.1   6.6   212  41.7  26.9  55.2
2017-12-16 11:00   3.9   6.0   256  40.3  25.9  56.2
2017-12-16 10:00   9.9  11.5   227  38.7  26.2  60.6
2017-12-16 09:00  11.1  12.1   217  36.5  25.7  64.6
2017-12-16 08:00  14.0  15.7   191  36.3  25.9  65.5
2017-12-16 07:00  16.7  19.1   209  37.6  25.6  61.5
2017-12-16 06:00  17.9  20.0   209  38.1  25.7  60.6
2017-12-16 05:00  18.5  20.6   210  38.1  25.2  59.3
2017-12-16 04:00  20.0  22.6   211  38.3  25.0  58.4
2017-12-16 03:00  22.9  24.9   216  38.5  23.5  54.4
2017-12-16 02:00  18.3  21.6   209  38.5  22.9  53.2
2017-12-16 01:00  19.8  24.3   226  39.7  22.0  48.7
2017-12-16 00:00  19.1  24.3   222  39.6  21.9  48.8
2017-12-15 23:00  20.2  23.1   216  38.7  22.5  52.0
2017-12-15 22:00  17.5  20.6   214  36.9  22.1  54.8
2017-12-15 21:00  15.2  17.3   219  36.3  23.4  59.1
2017-12-15 20:00  16.1  18.5   235  36.3  21.6  54.9
2017-12-15 19:00  13.8  17.1   238  35.2  21.8  57.7
2017-12-15 18:00  13.6  16.9   233  34.9  21.8  58.5
2017-12-15 17:00  13.0  18.7   238  33.8  22.2  62.2
2017-12-15 16:00  17.9  19.8   255  32.5  24.3  71.3
2017-12-15 15:00  15.9  18.1   249  33.1  20.8  60.3
2017-12-15 14:00  17.7  19.2   274  31.8  19.0  58.9
2017-12-15 13:00  22.9  25.3   278  31.1  17.1  55.9
2017-12-15 12:00  19.6  23.7   276  30.4  15.3  53.1
2017-12-15 11:00  24.3  27.4   281  28.6  14.5  55.3
2017-12-15 10:00  17.7  21.0   295  27.9  14.9  57.8
2017-12-15 09:00  18.1  20.2   282  27.5  17.8  66.7
2017-12-15 08:00  16.7  19.1   277  27.0  18.9  71.5
2017-12-15 07:00  14.2  18.3   285  26.1  18.3  72.2
2017-12-15 06:00  17.5  20.4   250  26.1  18.3  72.1
2017-12-15 05:00  17.9  20.2   240  25.7  17.2  70.0
2017-12-15 04:00  15.4  18.7   227  25.5  16.3  67.7
2017-12-15 03:00  13.6  17.3   232  25.9  16.1  66.2
2017-12-15 02:00   8.7  10.9   238  25.7  15.7  65.5
2017-12-15 01:00  12.6  14.2   262  24.6  13.3  61.8
2017-12-15 00:00  11.7  14.6   249  25.3  12.4  57.6
2017-12-14 23:00  10.9  12.6   270  24.8  12.1  58.1
2017-12-14 22:00   9.3  12.1   257  25.2  11.7  56.3
2017-12-14 21:00   6.6   7.6   271  25.3  11.8  56.2
2017-12-14 20:00   8.7  10.5   279  25.5  12.1  56.4
2017-12-14 19:00  10.1  11.5   294  25.5  11.0  53.7
2017-12-14 18:00   8.7   9.7   293  26.1   8.4  46.9
2017-12-14 17:00   8.0   9.1   287  26.4  10.2  50.0
2017-12-14 16:00   9.5  11.9   296  26.8  11.7  52.7
2017-12-14 15:00   7.4   8.9   342  25.7  13.3  59.0
2017-12-14 14:00   7.0   8.2   342  25.2  13.4  60.7
2017-12-14 13:00  12.6  14.4   338  25.2  15.7  67.0
2017-12-14 12:00  12.8  14.8   327  25.3  17.6  72.2
2017-12-14 11:00  13.0  15.0   337  25.7  20.1  79.0
2017-12-14 10:00  17.5  19.1   338  25.3  20.5  81.8
2017-12-14 09:00  16.3  17.9   318  21.9  17.7  83.5
2017-12-14 08:00  13.0  14.6   315  19.8  15.2  82.1
2017-12-14 07:00  14.6  15.9   310  19.8  14.7  80.5
2017-12-14 06:00  13.6  16.1   306  20.7  15.7  81.0
2017-12-14 05:00  15.0  16.7   322  21.9  16.5  79.4
2017-12-14 04:00  16.3  18.7   315  21.7  15.3  76.0
2017-12-14 03:00  15.0  16.3   313  23.9  17.7  77.0
2017-12-14 02:00  26.6  29.7   332  26.6  21.0  79.2
2017-12-14 01:00  28.4  30.9   335  28.4  24.3  84.4
2017-12-14 00:00  30.7  34.6     3  30.6  19.8  63.9
2017-12-13 23:00  28.6  31.9   360  30.9  22.3  70.1
2017-12-13 22:00  32.3  36.7   349  31.3  23.0  71.0
2017-12-13 21:00  35.2  39.3   343  32.0  22.9  68.8
2017-12-13 20:00  27.0  30.9   307  29.5  21.5  71.9
2017-12-13 19:00  28.2  31.9   301  30.6  21.6  69.0
2017-12-13 18:00  30.3  36.5   309  32.2  22.7  67.8
2017-12-13 17:00  25.1  30.7   315  35.4  25.2  66.0
2017-12-13 16:00  23.9  29.2   300  36.0  28.0  72.4
2017-12-13 15:00  18.1  20.8   277  36.1  31.7  83.8
2017-12-13 14:00  17.1  21.8   234  37.2  27.8  68.4
2017-12-13 13:00  20.6  23.3   224  37.9  23.7  56.2
2017-12-13 12:00  26.4  29.2   202  35.8  21.5  55.8
2017-12-13 11:00  29.0  31.5   195  33.8  18.9  54.1
2017-12-13 10:00  27.6  31.1   182  32.0  18.4  56.8
2017-12-13 09:00  30.5  33.2   175  30.0  15.8  55.2
2017-12-13 08:00  24.5  27.8   183  28.8  14.6  55.2
2017-12-13 07:00  25.7  27.4   183  27.3  13.4  55.5
2017-12-13 06:00  21.6  23.3   190  26.2  11.8  54.1
2017-12-13 05:00  19.4  21.2   187  25.2  12.3  57.8
2017-12-13 04:00  16.1  18.3   186  25.2  12.5  58.2
2017-12-13 03:00  13.0  15.7   193  24.4  11.1  56.5
2017-12-13 02:00  12.2  13.6   198  23.7   9.6  54.6
2017-12-13 01:00   6.0   8.4   239  24.4   8.4  50.2
2017-12-13 00:00   8.4  10.7   243  23.2   6.9  49.4
2017-12-12 23:00  11.7  14.0   265  22.8   9.2  55.5
2017-12-12 22:00  13.4  14.6   283  22.1   7.2  52.4
2017-12-12 21:00  11.1  13.0   289  21.6   7.3  53.8
2017-12-12 20:00  11.5  13.4   291  21.2   9.0  58.9
2017-12-12 19:00  15.0  16.7   280  21.0   9.6  61.0
2017-12-12 18:00  13.6  15.4   281  21.6   9.2  58.5